Time;durP1;ratioP1;P1;durP2;ratioP2;P2;SDS_P1;SDS_P2;PMS_P1;PMS_P2;Temp;Humidity;BMP_temperature;BMP_pressure;BME280_temperature;BME280_humidity;BME280_pressure;Samples;Min_cycle;Max_cycle;Signal;HPM_P1;HPM_P2
2020/12/14 00:00:50;;;;;;;;;;;;;;;;;;5035859;28;6749;-74
2020/12/14 00:03:16;;;;;;;;;;;;;;;;;;5042788;28;9237;-74
2020/12/14 00:05:42;;;;;;;;;;;;;;;;;;5041528;28;9435;-73
2020/12/14 00:08:08;;;;;;;;;;;;;;;;;;5033372;28;9473;-73
2020/12/14 00:10:34;;;;;;;;;;;;;;;;;;5043086;28;3868;-74
2020/12/14 00:13:02;;;;;;;;;;;;;;;;;;5045009;28;9395;-74
2020/12/14 00:15:28;;;;;;;;;;;;;;;;;;5042897;28;9312;-74
2020/12/14 00:17:54;;;;;;;;;;;;;;;;;;5029155;28;9425;-74
2020/12/14 00:20:20;;;;;;;;;;;;;;;;;;5038175;28;8994;-72
2020/12/14 00:22:45;;;;;;;;;;;;;;;;;;5045841;28;3975;-74
2020/12/14 00:25:11;;;;;;;;;;;;;;;;;;5041421;28;10865;-73
2020/12/14 00:27:37;;;;;;;;;;;;;;;;;;5039837;28;8412;-73
2020/12/14 00:30:05;;;;;;;;;;;;;;;;;;5045792;28;9553;-74
2020/12/14 00:32:31;;;;;;;;;;;;;;;;;;5031597;28;9483;-73
2020/12/14 00:34:57;;;;;;;;;;;;;;;;;;5043551;28;9491;-74
2020/12/14 00:37:23;;;;;;;;;;;;;;;;;;5041653;28;9854;-74
2020/12/14 00:39:49;;;;;;;;;;;;;;;;;;5040488;28;9284;-74
2020/12/14 00:42:15;;;;;;;;;;;;;;;;;;5044373;28;9438;-74
2020/12/14 00:44:41;;;;;;;;;;;;;;;;;;5042862;28;8788;-74
2020/12/14 00:47:08;;;;;;;;;;;;;;;;;;5045890;28;8878;-74
2020/12/14 00:49:35;;;;;;;;;;;;;;;;;;5039125;28;4178;-73
2020/12/14 00:52:04;;;;;;;;;;;;;;;;;;5040922;28;10918;-73
2020/12/14 00:54:30;;;;;;;;;;;;;;;;;;5040208;28;10646;-74
2020/12/14 00:56:55;;;;;;;;;;;;;;;;;;5039596;28;9331;-73
2020/12/14 00:59:22;;;;;;;;;;;;;;;;;;5043172;28;9398;-72
2020/12/14 01:01:50;;;;;;;;;;;;;;;;;;5038201;28;8370;-75
2020/12/14 01:04:16;;;;;;;;;;;;;;;;;;5045247;28;9566;-73
2020/12/14 01:06:42;;;;;;;;;;;;;;;;;;5043811;28;9257;-73
2020/12/14 01:09:08;;;;;;;;;;;;;;;;;;5041410;28;8340;-73
2020/12/14 01:11:34;;;;;;;;;;;;;;;;;;5042305;28;9427;-72
2020/12/14 01:14:00;;;;;;;;;;;;;;;;;;5043484;28;9208;-74
2020/12/14 01:16:26;;;;;;;;;;;;;;;;;;5045679;28;9720;-73
2020/12/14 01:18:52;;;;;;;;;;;;;;;;;;5034494;28;9596;-73
2020/12/14 01:21:22;;;;;;;;;;;;;;;;;;5040846;28;8874;-73
2020/12/14 01:23:48;;;;;;;;;;;;;;;;;;5041639;28;10713;-73
2020/12/14 01:26:14;;;;;;;;;;;;;;;;;;5040860;28;9237;-72
2020/12/14 01:28:41;;;;;;;;;;;;;;;;;;5043263;28;4383;-73
2020/12/14 01:31:07;;;;;;;;;;;;;;;;;;5038485;28;9261;-73
2020/12/14 01:33:33;;;;;;;;;;;;;;;;;;5041112;28;9376;-74
2020/12/14 01:35:58;;;;;;;;;;;;;;;;;;5039899;28;9394;-73
2020/12/14 01:38:25;;;;;;;;;;;;;;;;;;5038451;28;9276;-73
2020/12/14 01:40:52;;;;;;;;;;;;;;;;;;5030377;28;9007;-74
2020/12/14 01:43:18;;;;;;;;;;;;;;;;;;5040178;28;9672;-73
2020/12/14 01:45:44;;;;;;;;;;;;;;;;;;5033867;28;9261;-72
2020/12/14 01:48:12;;;;;;;;;;;;;;;;;;5041139;28;9380;-74
2020/12/14 01:50:38;;;;;;;;;;;;;;;;;;5042564;28;10686;-74
2020/12/14 01:53:06;;;;;;;;;;;;;;;;;;5045285;28;10908;-73
2020/12/14 01:55:34;;;;;;;;;;;;;;;;;;5044920;28;4182;-73
2020/12/14 01:58:00;;;;;;;;;;;;;;;;;;5042545;28;9260;-73
2020/12/14 02:00:26;;;;;;;;;;;;;;;;;;5041102;28;9242;-73
2020/12/14 02:02:52;;;;;;;;;;;;;;;;;;5039400;28;9326;-72
2020/12/14 02:05:18;;;;;;;;;;;;;;;;;;5032592;28;9373;-73
2020/12/14 02:07:44;;;;;;;;;;;;;;;;;;5045159;28;4275;-73
2020/12/14 02:10:10;;;;;;;;;;;;;;;;;;5036105;28;8951;-73
2020/12/14 02:12:37;;;;;;;;;;;;;;;;;;5031833;28;9427;-73
2020/12/14 02:15:03;;;;;;;;;;;;;;;;;;5033880;28;9236;-74
2020/12/14 02:17:29;;;;;;;;;;;;;;;;;;5041679;28;9392;-73
2020/12/14 02:19:55;;;;;;;;;;;;;;;;;;5043097;28;9095;-73
2020/12/14 02:22:22;;;;;;;;;;;;;;;;;;5046814;28;8425;-73
2020/12/14 02:24:53;;;;;;;;;;;;;;;;;;5042871;28;10794;-73
2020/12/14 02:27:19;;;;;;;;;;;;;;;;;;5033889;28;9521;-73
2020/12/14 02:29:47;;;;;;;;;;;;;;;;;;5029137;28;9319;-73
2020/12/14 02:32:14;;;;;;;;;;;;;;;;;;5043113;28;9386;-73
2020/12/14 02:34:40;;;;;;;;;;;;;;;;;;5047831;28;4400;-72
2020/12/14 02:37:08;;;;;;;;;;;;;;;;;;5039840;28;10727;-74
2020/12/14 02:39:37;;;;;;;;;;;;;;;;;;5034490;28;9621;-73
2020/12/14 02:42:04;;;;;;;;;;;;;;;;;;5038743;28;9353;-74
2020/12/14 02:44:30;;;;;;;;;;;;;;;;;;5034424;28;9390;-73
2020/12/14 02:46:56;;;;;;;;;;;;;;;;;;5043879;28;9487;-74
2020/12/14 02:49:22;;;;;;;;;;;;;;;;;;5042004;28;9649;-73
2020/12/14 02:51:48;;;;;;;;;;;;;;;;;;5041066;28;11014;-74
2020/12/14 02:54:13;;;;;;;;;;;;;;;;;;5043803;28;9013;-73
2020/12/14 02:56:41;;;;;;;;;;;;;;;;;;5039386;28;9421;-74
2020/12/14 02:59:08;;;;;;;;;;;;;;;;;;5038710;28;9215;-74
2020/12/14 03:01:34;;;;;;;;;;;;;;;;;;5049133;28;3842;-74
2020/12/14 03:04:00;;;;;;;;;;;;;;;;;;5044159;28;9331;-74
2020/12/14 03:06:26;;;;;;;;;;;;;;;;;;5041318;28;9324;-74
2020/12/14 03:08:52;;;;;;;;;;;;;;;;;;5042958;28;9346;-73
2020/12/14 03:11:18;;;;;;;;;;;;;;;;;;5034095;28;10188;-74
2020/12/14 03:13:44;;;;;;;;;;;;;;;;;;5045358;28;4178;-74
2020/12/14 03:16:11;;;;;;;;;;;;;;;;;;5040520;28;9437;-73
2020/12/14 03:18:37;;;;;;;;;;;;;;;;;;5036359;28;9494;-73
2020/12/14 03:21:05;;;;;;;;;;;;;;;;;;5038411;28;9427;-73
2020/12/14 03:23:31;;;;;;;;;;;;;;;;;;5046484;28;10683;-74
2020/12/14 03:25:57;;;;;;;;;;;;;;;;;;5043982;28;9402;-74
2020/12/14 03:28:23;;;;;;;;;;;;;;;;;;5049059;28;9652;-73
2020/12/14 03:30:49;;;;;;;;;;;;;;;;;;5039760;28;9316;-73
2020/12/14 03:33:16;;;;;;;;;;;;;;;;;;5042360;28;9264;-74
2020/12/14 03:35:42;;;;;;;;;;;;;;;;;;5046938;28;9261;-74
2020/12/14 03:38:08;;;;;;;;;;;;;;;;;;5036929;28;9494;-71
2020/12/14 03:40:34;;;;;;;;;;;;;;;;;;5049213;28;4225;-74
2020/12/14 03:43:00;;;;;;;;;;;;;;;;;;5040279;28;9240;-74
2020/12/14 03:45:29;;;;;;;;;;;;;;;;;;5042499;28;9197;-73
2020/12/14 03:47:55;;;;;;;;;;;;;;;;;;5041872;28;9426;-75
2020/12/14 03:50:21;;;;;;;;;;;;;;;;;;5046063;28;10738;-74
2020/12/14 03:52:47;;;;;;;;;;;;;;;;;;5041971;28;3870;-74
2020/12/14 03:55:14;;;;;;;;;;;;;;;;;;5031543;28;10688;-74
2020/12/14 03:57:40;;;;;;;;;;;;;;;;;;5039264;28;9319;-74
2020/12/14 04:00:06;;;;;;;;;;;;;;;;;;5038185;28;9296;-73
2020/12/14 04:02:32;;;;;;;;;;;;;;;;;;5044068;28;9366;-74
2020/12/14 04:04:58;;;;;;;;;;;;;;;;;;5047785;28;9713;-74
2020/12/14 04:07:25;;;;;;;;;;;;;;;;;;5044358;28;9927;-73
2020/12/14 04:09:51;;;;;;;;;;;;;;;;;;5039231;28;9401;-74
2020/12/14 04:12:17;;;;;;;;;;;;;;;;;;5040498;28;9354;-74
2020/12/14 04:14:43;;;;;;;;;;;;;;;;;;5035093;28;9398;-74
2020/12/14 04:17:09;;;;;;;;;;;;;;;;;;5040525;28;9371;-74
2020/12/14 04:19:35;;;;;;;;;;;;;;;;;;5045732;28;4038;-74
2020/12/14 04:22:07;;;;;;;;;;;;;;;;;;5041684;28;11038;-74
2020/12/14 04:24:34;;;;;;;;;;;;;;;;;;5044115;28;10861;-74
2020/12/14 04:27:00;;;;;;;;;;;;;;;;;;5044382;28;9408;-74
2020/12/14 04:29:26;;;;;;;;;;;;;;;;;;5043746;28;9367;-74
2020/12/14 04:31:52;;;;;;;;;;;;;;;;;;5045488;28;7433;-70
2020/12/14 04:34:18;;;;;;;;;;;;;;;;;;5042079;28;9625;-74
2020/12/14 04:36:44;;;;;;;;;;;;;;;;;;5041684;28;9429;-74
2020/12/14 04:39:11;;;;;;;;;;;;;;;;;;5039614;28;10600;-74
2020/12/14 04:41:38;;;;;;;;;;;;;;;;;;5042759;28;9264;-74
2020/12/14 04:44:04;;;;;;;;;;;;;;;;;;5042665;28;9259;-74
2020/12/14 04:46:30;;;;;;;;;;;;;;;;;;5040473;28;9652;-74
2020/12/14 04:48:56;;;;;;;;;;;;;;;;;;5042362;28;9296;-74
2020/12/14 04:51:22;;;;;;;;;;;;;;;;;;5042676;28;9036;-72
2020/12/14 04:53:50;;;;;;;;;;;;;;;;;;5038047;28;10662;-74
2020/12/14 04:56:17;;;;;;;;;;;;;;;;;;5042438;28;9372;-74
2020/12/14 04:58:44;;;;;;;;;;;;;;;;;;5049132;28;4201;-74
2020/12/14 05:01:10;;;;;;;;;;;;;;;;;;5035784;28;7490;-74
2020/12/14 05:03:37;;;;;;;;;;;;;;;;;;5032136;28;9406;-74
2020/12/14 05:06:03;;;;;;;;;;;;;;;;;;5032528;28;8031;-74
2020/12/14 05:08:29;;;;;;;;;;;;;;;;;;5036438;28;9319;-74
2020/12/14 05:10:55;;;;;;;;;;;;;;;;;;5039625;28;9227;-74
2020/12/14 05:13:25;;;;;;;;;;;;;;;;;;5037148;28;9716;-74
2020/12/14 05:15:52;;;;;;;;;;;;;;;;;;5041944;28;9690;-73
2020/12/14 05:18:22;;;;;;;;;;;;;;;;;;5032570;28;9389;-73
2020/12/14 05:20:55;;;;;;;;;;;;;;;;;;5030842;28;7461;-73
2020/12/14 05:23:21;;;;;;;;;;;;;;;;;;5038460;28;8677;-73
2020/12/14 05:25:47;;;;;;;;;;;;;;;;;;5039730;28;3838;-74
2020/12/14 05:28:14;;;;;;;;;;;;;;;;;;5036392;28;8857;-74
2020/12/14 05:30:42;;;;;;;;;;;;;;;;;;5038962;28;7924;-74
2020/12/14 05:33:09;;;;;;;;;;;;;;;;;;5036280;28;8064;-74
2020/12/14 05:35:36;;;;;;;;;;;;;;;;;;5033599;28;7763;-73
2020/12/14 05:38:08;;;;;;;;;;;;;;;;;;5039308;28;8442;-74
2020/12/14 05:40:34;;;;;;;;;;;;;;;;;;5036834;28;4031;-73
2020/12/14 05:43:06;;;;;;;;;;;;;;;;;;5041291;28;8827;-74
2020/12/14 05:45:32;;;;;;;;;;;;;;;;;;5038265;28;8331;-74
2020/12/14 05:47:58;;;;;;;;;;;;;;;;;;5041646;28;9558;-74
2020/12/14 05:50:27;;;;;;;;;;;;;;;;;;5040633;28;8546;-74
2020/12/14 05:52:53;;;;;;;;;;;;;;;;;;5035193;28;7765;-74
2020/12/14 05:55:21;;;;;;;;;;;;;;;;;;5041454;28;7709;-73
2020/12/14 05:57:48;;;;;;;;;;;;;;;;;;5045692;28;8750;-74
2020/12/14 06:00:14;;;;;;;;;;;;;;;;;;5041767;28;8599;-74
2020/12/14 06:02:40;;;;;;;;;;;;;;;;;;5042145;28;9036;-75
2020/12/14 06:05:07;;;;;;;;;;;;;;;;;;5045416;28;8355;-73
2020/12/14 06:07:35;;;;;;;;;;;;;;;;;;5038259;28;3901;-74
2020/12/14 06:10:08;;;;;;;;;;;;;;;;;;5035880;28;11140;-74
2020/12/14 06:12:34;;;;;;;;;;;;;;;;;;5036659;28;8598;-74
2020/12/14 06:15:01;;;;;;;;;;;;;;;;;;5037930;28;12219;-73
2020/12/14 06:17:27;;;;;;;;;;;;;;;;;;5029073;28;7985;-74
2020/12/14 06:19:59;;;;;;;;;;;;;;;;;;5032040;28;8402;-74
2020/12/14 06:22:26;;;;;;;;;;;;;;;;;;5037684;28;7710;-74
2020/12/14 06:24:55;;;;;;;;;;;;;;;;;;5037353;28;8711;-74
2020/12/14 06:27:23;;;;;;;;;;;;;;;;;;5026686;28;9225;-74
2020/12/14 06:29:49;;;;;;;;;;;;;;;;;;5038396;28;9265;-74
2020/12/14 06:32:35;;;;;;;;;;;;;;;;;;5036461;28;9373;-74
2020/12/14 06:35:01;;;;;;;;;;;;;;;;;;5047728;28;7972;-74
2020/12/14 06:37:42;;;;;;;;;;;;;;;;;;5051932;28;8072;-74
2020/12/14 06:40:09;;;;;;;;;;;;;;;;;;5041535;28;9393;-74
2020/12/14 06:42:37;;;;;;;;;;;;;;;;;;5040166;28;8926;-74
2020/12/14 06:45:10;;;;;;;;;;;;;;;;;;5048868;28;10724;-75
2020/12/14 06:47:40;;;;;;;;;;;;;;;;;;5037645;28;10937;-74
2020/12/14 06:50:21;;;;;;;;;;;;;;;;;;5049981;28;8165;-74
2020/12/14 06:52:46;;;;;;;;;;;;;;;;;;5042442;28;4239;-74
2020/12/14 06:55:13;;;;;;;;;;;;;;;;;;5040900;28;9462;-75
2020/12/14 06:57:40;;;;;;;;;;;;;;;;;;5047083;28;9413;-74
2020/12/14 07:00:06;;;;;;;;;;;;;;;;;;5040693;28;9338;-73
2020/12/14 07:02:36;;;;;;;;;;;;;;;;;;5045555;28;9309;-74
2020/12/14 07:05:02;;;;;;;;;;;;;;;;;;5051917;28;9240;-74
2020/12/14 07:07:32;;;;;;;;;;;;;;;;;;5051603;28;9774;-74
2020/12/14 07:10:12;;;;;;;;;;;;;;;;;;5039296;28;9355;-74
2020/12/14 07:12:42;;;;;;;;;;;;;;;;;;5041444;28;9472;-73
2020/12/14 07:15:21;;;;;;;;;;;;;;;;;;5044330;28;10704;-74
2020/12/14 07:17:59;;;;;;;;;;;;;;;;;;5042476;28;11022;-74
2020/12/14 07:20:25;;;;;;;;;;;;;;;;;;5033520;28;9381;-74
2020/12/14 07:22:51;;;;;;;;;;;;;;;;;;5039885;28;4528;-73
2020/12/14 07:25:20;;;;;;;;;;;;;;;;;;5047381;28;9384;-74
2020/12/14 07:27:47;;;;;;;;;;;;;;;;;;5040059;28;9997;-73
2020/12/14 07:30:13;;;;;;;;;;;;;;;;;;5035464;28;9413;-75
2020/12/14 07:32:39;;;;;;;;;;;;;;;;;;5041554;28;7396;-75
2020/12/14 07:35:06;;;;;;;;;;;;;;;;;;5044381;28;9358;-75
2020/12/14 07:37:32;;;;;;;;;;;;;;;;;;5046158;28;10633;-74
2020/12/14 07:39:58;;;;;;;;;;;;;;;;;;5041691;28;10977;-74
2020/12/14 07:42:25;;;;;;;;;;;;;;;;;;5045670;28;8920;-74
2020/12/14 07:45:05;;;;;;;;;;;;;;;;;;5037683;28;9234;-74
2020/12/14 07:47:31;;;;;;;;;;;;;;;;;;5037327;28;9322;-75
2020/12/14 07:50:04;;;;;;;;;;;;;;;;;;5040462;28;10644;-74
2020/12/14 07:52:33;;;;;;;;;;;;;;;;;;5044840;28;11486;-74
2020/12/14 07:54:59;;;;;;;;;;;;;;;;;;5036138;28;10855;-74
2020/12/14 07:57:30;;;;;;;;;;;;;;;;;;5041532;28;9267;-74
2020/12/14 07:59:56;;;;;;;;;;;;;;;;;;5033618;28;9235;-75
2020/12/14 08:02:23;;;;;;;;;;;;;;;;;;5037241;28;9563;-76
2020/12/14 08:04:49;;;;;;;;;;;;;;;;;;5040444;28;4173;-76
2020/12/14 08:07:16;;;;;;;;;;;;;;;;;;5025642;28;8969;-76
2020/12/14 08:09:45;;;;;;;;;;;;;;;;;;5034921;28;9381;-76
2020/12/14 08:12:11;;;;;;;;;;;;;;;;;;5032737;28;10589;-76
2020/12/14 08:14:37;;;;;;;;;;;;;;;;;;5032979;28;10663;-75
2020/12/14 08:17:10;;;;;;;;;;;;;;;;;;5037563;28;10624;-76
2020/12/14 08:19:36;;;;;;;;;;;;;;;;;;5043232;28;4244;-76
2020/12/14 08:22:04;;;;;;;;;;;;;;;;;;5036341;28;10862;-76
2020/12/14 08:24:29;;;;;;;;;;;;;;;;;;5036587;28;7092;-75
2020/12/14 08:27:00;;;;;;;;;;;;;;;;;;5038662;28;10706;-76
2020/12/14 08:29:27;;;;;;;;;;;;;;;;;;5040066;28;10836;-76
2020/12/14 08:31:55;;;;;;;;;;;;;;;;;;5048508;28;3873;-75
2020/12/14 08:34:28;;;;;;;;;;;;;;;;;;5041509;28;11102;-76
2020/12/14 08:36:53;;;;;;;;;;;;;;;;;;5044866;28;10965;-75
2020/12/14 08:39:19;;;;;;;;;;;;;;;;;;5041922;28;10944;-75
2020/12/14 08:41:45;;;;;;;;;;;;;;;;;;5042291;28;10623;-75
2020/12/14 08:44:18;;;;;;;;;;;;;;;;;;5040833;28;10755;-75
2020/12/14 08:46:44;;;;;;;;;;;;;;;;;;5044847;28;4520;-76
2020/12/14 08:49:10;;;;;;;;;;;;;;;;;;5040546;28;10689;-76
2020/12/14 08:51:37;;;;;;;;;;;;;;;;;;5044554;28;10861;-76
2020/12/14 08:54:10;;;;;;;;;;;;;;;;;;5038251;28;10763;-77
2020/12/14 08:56:36;;;;;;;;;;;;;;;;;;5041580;28;10753;-76
2020/12/14 08:59:02;;;;;;;;;;;;;;;;;;5044204;28;9242;-76
2020/12/14 09:01:29;;;;;;;;;;;;;;;;;;5036002;28;9669;-76
2020/12/14 09:03:56;;;;;;;;;;;;;;;;;;5040708;28;12589;-76
2020/12/14 09:06:26;;;;;;;;;;;;;;;;;;5033598;28;10294;-75
2020/12/14 09:09:00;;;;;;;;;;;;;;;;;;5037189;28;9435;-76
2020/12/14 09:11:28;;;;;;;;;;;;;;;;;;5044829;28;9156;-76
2020/12/14 09:13:54;;;;;;;;;;;;;;;;;;5047561;28;4082;-76
2020/12/14 09:16:20;;;;;;;;;;;;;;;;;;5039495;28;9273;-76
2020/12/14 09:18:46;;;;;;;;;;;;;;;;;;5038969;28;9477;-76
2020/12/14 09:21:12;;;;;;;;;;;;;;;;;;5031058;28;9456;-76
2020/12/14 09:23:38;;;;;;;;;;;;;;;;;;5037454;28;8477;-76
2020/12/14 09:26:05;;;;;;;;;;;;;;;;;;5037243;28;9395;-77
2020/12/14 09:28:34;;;;;;;;;;;;;;;;;;5030770;28;9968;-76
2020/12/14 09:30:59;;;;;;;;;;;;;;;;;;5036932;28;9039;-76
2020/12/14 09:33:25;;;;;;;;;;;;;;;;;;5030847;28;9276;-75
2020/12/14 09:35:51;;;;;;;;;;;;;;;;;;5031001;28;10609;-76
2020/12/14 09:38:18;;;;;;;;;;;;;;;;;;5037861;28;11051;-75
2020/12/14 09:40:43;;;;;;;;;;;;;;;;;;5033133;28;4227;-75
2020/12/14 09:43:10;;;;;;;;;;;;;;;;;;5033063;28;10770;-75
2020/12/14 09:45:36;;;;;;;;;;;;;;;;;;5032687;28;9210;-75
2020/12/14 09:48:02;;;;;;;;;;;;;;;;;;5032629;28;9256;-76
2020/12/14 09:50:28;;;;;;;;;;;;;;;;;;5033598;28;9101;-74
2020/12/14 09:52:54;;;;;;;;;;;;;;;;;;5038567;28;3849;-75
2020/12/14 09:55:20;;;;;;;;;;;;;;;;;;5030111;28;6133;-75
2020/12/14 09:57:46;;;;;;;;;;;;;;;;;;5029648;28;9289;-76
2020/12/14 10:00:12;;;;;;;;;;;;;;;;;;5031237;28;9088;-75
2020/12/14 10:02:38;;;;;;;;;;;;;;;;;;5032183;28;9301;-74
2020/12/14 10:05:04;;;;;;;;;;;;;;;;;;5038441;28;8579;-75
2020/12/14 10:07:30;;;;;;;;;;;;;;;;;;5030547;28;9937;-75
2020/12/14 10:09:56;;;;;;;;;;;;;;;;;;5037111;28;9284;-76
2020/12/14 10:12:25;;;;;;;;;;;;;;;;;;5040391;28;9415;-76
2020/12/14 10:14:53;;;;;;;;;;;;;;;;;;5038073;28;9430;-76
2020/12/14 10:17:21;;;;;;;;;;;;;;;;;;5035962;28;9420;-76
2020/12/14 10:19:47;;;;;;;;;;;;;;;;;;5034429;28;4256;-77
2020/12/14 10:22:12;;;;;;;;;;;;;;;;;;5042477;28;9391;-77
2020/12/14 10:24:39;;;;;;;;;;;;;;;;;;5042989;28;9366;-76
2020/12/14 10:27:06;;;;;;;;;;;;;;;;;;5042190;28;9258;-77
2020/12/14 10:29:32;;;;;;;;;;;;;;;;;;5037468;28;9247;-78
2020/12/14 10:31:57;;;;;;;;;;;;;;;;;;5050256;28;8144;-78
2020/12/14 10:34:24;;;;;;;;;;;;;;;;;;5039878;28;9665;-77
2020/12/14 10:36:50;;;;;;;;;;;;;;;;;;5041606;28;9323;-78
2020/12/14 10:39:16;;;;;;;;;;;;;;;;;;5037735;28;9299;-77
2020/12/14 10:41:42;;;;;;;;;;;;;;;;;;5037337;28;9200;-77
2020/12/14 10:44:08;;;;;;;;;;;;;;;;;;5042391;28;9432;-78
2020/12/14 10:46:34;;;;;;;;;;;;;;;;;;5044797;28;9759;-77
2020/12/14 10:49:00;;;;;;;;;;;;;;;;;;5042943;28;9226;-78
2020/12/14 10:51:27;;;;;;;;;;;;;;;;;;5042699;28;10774;-77
2020/12/14 10:53:53;;;;;;;;;;;;;;;;;;5036920;28;9486;-78
2020/12/14 10:56:19;;;;;;;;;;;;;;;;;;5040445;28;7561;-78
2020/12/14 10:58:45;;;;;;;;;;;;;;;;;;5041346;28;4267;-76
2020/12/14 11:01:12;;;;;;;;;;;;;;;;;;5041005;28;9262;-76
2020/12/14 11:03:37;;;;;;;;;;;;;;;;;;5043218;28;9161;-76
2020/12/14 11:06:03;;;;;;;;;;;;;;;;;;5032089;28;9212;-76
2020/12/14 11:18:13;;;;;;;;;;;;;;;;;;5089975;27;20399;-44
2020/12/14 11:20:39;;;;;;;;;;;;;;;;;;5047363;27;219483;-44
2020/12/14 11:23:05;;;;;;;;;;;;;;;;;;5063300;28;19917;-45
2020/12/14 11:25:31;;;;;;;;;;;;;;;;;;5029103;28;20387;-46
2020/12/14 11:27:57;;;;;;;;;;;;;;;;;;5027735;28;19920;-43
2020/12/14 11:32:31;;;;;;;;;;;;;;;;;;5052361;27;10671;-49
2020/12/14 11:34:57;;;;;;;;;;;;;;;;;;5056571;28;3911;-48
2020/12/14 11:37:22;;;;;;;;;;;;;;;;;;5052919;28;14046;-42
2020/12/14 11:39:47;;;;;;;;;;;;;;;;;;5053937;28;11688;-48
2020/12/14 11:42:12;;;;;;;;;;;;;;;;;;5056553;28;13286;-49
2020/12/14 11:44:38;;;;;;;;;;;;;;;;;;5055125;28;10978;-48
2020/12/14 11:47:03;;;;;;;;;;;;;;;;;;5054930;28;13777;-47
2020/12/14 11:49:28;;;;;;;;;;;;;;;;;;5055802;28;10761;-43
2020/12/14 11:51:54;;;;;;;;;;;;;;;;;;5059512;28;10607;-44
2020/12/14 11:54:19;;;;;;;;;;;;;;;;;;5058577;28;8804;-45
2020/12/14 11:56:45;;;;;;;;;;;;;;;;;;5062767;28;14295;-46
2020/12/14 11:59:10;;;;;;;;;;;;;;;;;;5063057;28;12060;-46
2020/12/14 12:01:36;;;;;;;;;;;;;;;;;;5064662;28;9501;-43
2020/12/14 12:04:01;;;;;;;;;;;;;;;;;;5057187;28;13070;-41
2020/12/14 12:06:28;;;;;;;;;;;;;;;;;;5060438;28;11586;-46
2020/12/14 12:08:53;;;;;;;;;;;;;;;;;;5056702;28;12938;-43
2020/12/14 12:11:18;;;;;;;;;;;;;;;;;;5051545;28;13733;-40
2020/12/14 12:13:44;;;;;;;;;;;;;;;;;;5055940;28;3942;-48
2020/12/14 12:16:09;;;;;;;;;;;;;;;;;;5055892;28;12726;-47
2020/12/14 12:18:34;;;;;;;;;;;;;;;;;;5054374;28;8171;-46
2020/12/14 12:21:00;;;;;;;;;;;;;;;;;;5064111;28;13239;-46
2020/12/14 12:23:25;;;;;;;;;;;;;;;;;;5056099;28;10913;-46
2020/12/14 12:25:51;;;;;;;;;;;;;;;;;;5047091;28;4239;-47
2020/12/14 12:28:16;;;;;;;;;;;;;;;;;;5032400;28;200310;-48
2020/12/14 12:30:41;;;;;;;;;;;;;;;;;;5033626;28;11381;-45
2020/12/14 12:33:07;;;;;;;;;;;;;;;;;;5037502;28;11873;-41
2020/12/14 12:35:32;;;;;;;;;;;;;;;;;;5041410;28;14943;-40
2020/12/14 12:37:57;;;;;;;;;;;;;;;;;;5035852;28;3854;-45
2020/12/14 12:40:23;;;;;;;;;;;;;;;;;;5041355;28;13246;-44
2020/12/14 12:42:48;;;;;;;;;;;;;;;;;;5030615;28;14725;-47
2020/12/14 12:45:14;;;;;;;;;;;;;;;;;;5026778;28;11735;-44
2020/12/14 12:47:39;;;;;;;;;;;;;;;;;;5030158;28;11679;-46
2020/12/14 12:50:04;;;;;;;;;;;;;;;;;;5030376;28;13469;-46
2020/12/14 12:52:29;;;;;;;;;;;;;;;;;;5024698;28;9569;-45
2020/12/14 12:54:55;;;;;;;;;;;;;;;;;;5025850;28;8991;-44
2020/12/14 12:57:20;;;;;;;;;;;;;;;;;;5025818;28;10915;-47
2020/12/14 12:59:45;;;;;;;;;;;;;;;;;;5029898;28;9545;-45
2020/12/14 13:02:10;;;;;;;;;;;;;;;;;;5025628;28;12391;-47
2020/12/14 13:04:36;;;;;;;;;;;;;;;;;;5028058;28;9950;-48
2020/12/14 13:07:05;;;;;;;;;;;;;;;;;;5029632;28;10048;-42
2020/12/14 13:09:30;;;;;;;;;;;;;;;;;;5029688;28;10287;-44
2020/12/14 13:11:55;;;;;;;;;;;;;;;;;;5026548;28;9484;-42
2020/12/14 13:14:21;;;;;;;;;;;;;;;;;;5029227;28;10821;-48
2020/12/14 13:16:46;;;;;;;;;;;;;;;;;;5028730;28;4179;-48
2020/12/14 13:22:17;;;;;;;;;;;;;;;;;;5341289;22;4152;-47
2020/12/14 13:24:42;;;;;;;;;;;;;;;;;;5051226;28;13369;-49
2020/12/14 13:27:07;;;;;;;;;;;;;;;;;;5049048;28;13583;-47
2020/12/14 13:29:32;;;;;;;;;;;;;;;;;;5050302;28;9802;-45
2020/12/14 13:31:58;;;;;;;;;;;;;;;;;;5051728;28;1981;-50
2020/12/14 13:34:23;;;;;;;;;;;;;;;;;;5049447;28;10940;-46
2020/12/14 13:36:49;;;;;;;;;;;;;;;;;;5049655;28;9361;-48
2020/12/14 13:39:14;;;;;;;;;;;;;;;;;;5033468;28;10686;-49
2020/12/14 13:41:39;;;;;;;;;;;;;;;;;;5049897;28;9464;-49
2020/12/14 13:44:04;;;;;;;;;;;;;;;;;;5050784;28;11456;-47
2020/12/14 13:46:30;;;;;;;;;;;;;;;;;;5051251;28;7516;-52
2020/12/14 13:48:55;;;;;;;;;;;;;;;;;;5044103;28;10824;-51
2020/12/14 13:51:21;;;;;;;;;;;;;;;;;;5047383;28;13497;-47
2020/12/14 13:53:47;;;;;;;;;;;;;;;;;;5045823;28;10446;-50
2020/12/14 13:56:12;;;;;;;;;;;;;;;;;;5043943;28;11188;-46
2020/12/14 13:58:38;;;;;;;;;;;;;;;;;;5034184;28;9355;-47
2020/12/14 14:01:03;;;;;;;;;;;;;;;;;;5036656;28;10450;-50
2020/12/14 14:03:28;;;;;;;;;;;;;;;;;;5049329;28;14769;-48
2020/12/14 14:05:54;;;;;;;;;;;;;;;;;;5045494;28;13935;-49
2020/12/14 14:08:19;;;;;;;;;;;;;;;;;;5046768;28;14445;-48
2020/12/14 14:10:44;;;;;;;;;;;;;;;;;;5052245;28;4268;-47
2020/12/14 14:13:09;;;;;;;;;;;;;;;;;;5033651;28;12332;-48
2020/12/14 14:15:35;;;;;;;;;;;;;;;;;;5043897;28;9198;-50
2020/12/14 14:18:00;;;;;;;;;;;;;;;;;;5048258;28;10616;-48
2020/12/14 14:20:25;;;;;;;;;;;;;;;;;;5047614;28;10239;-49
2020/12/14 14:22:50;;;;;;;;;;;;;;;;;;5047952;28;4180;-50
2020/12/14 14:25:16;;;;;;;;;;;;;;;;;;5027922;28;13583;-47
2020/12/14 14:27:41;;;;;;;;;;;;;;;;;;5042035;28;13041;-46
2020/12/14 14:30:06;;;;;;;;;;;;;;;;;;5050308;28;11975;-49
2020/12/14 14:32:32;;;;;;;;;;;;;;;;;;5055829;28;9117;-48
2020/12/14 14:34:57;;;;;;;;;;;;;;;;;;5053113;28;4267;-46
2020/12/14 14:37:22;;;;;;;;;;;;;;;;;;5044209;28;6344;-48
2020/12/14 14:39:48;;;;;;;;;;;;;;;;;;5049122;28;13166;-48
2020/12/14 14:42:15;;;;;;;;;;;;;;;;;;5047208;28;13899;-46
2020/12/14 14:44:40;;;;;;;;;;;;;;;;;;5043654;28;13657;-45
2020/12/14 14:47:06;;;;;;;;;;;;;;;;;;5042111;28;10439;-49
2020/12/14 14:49:31;;;;;;;;;;;;;;;;;;5047740;28;9129;-48
2020/12/14 14:51:57;;;;;;;;;;;;;;;;;;5044106;28;11680;-49
2020/12/14 14:54:22;;;;;;;;;;;;;;;;;;5046771;28;9175;-49
2020/12/14 14:56:47;;;;;;;;;;;;;;;;;;5046340;28;13917;-47
2020/12/14 14:59:13;;;;;;;;;;;;;;;;;;5057041;28;13109;-46
2020/12/14 15:01:39;;;;;;;;;;;;;;;;;;5028469;28;10749;-50
2020/12/14 15:04:04;;;;;;;;;;;;;;;;;;5021307;28;9054;-47
2020/12/14 15:06:31;;;;;;;;;;;;;;;;;;5013413;28;10348;-49
2020/12/14 15:08:56;;;;;;;;;;;;;;;;;;5012600;28;12470;-46
2020/12/14 15:11:22;;;;;;;;;;;;;;;;;;5026642;28;10817;-48
2020/12/14 15:13:48;;;;;;;;;;;;;;;;;;5010778;28;4142;-52
2020/12/14 15:16:13;;;;;;;;;;;;;;;;;;5022885;28;13361;-47
2020/12/14 15:21:14;;;;;;;;;;;;;;;;;;3475986;22;4134;-46
2020/12/14 15:23:39;;;;;;;;;;;;;;;;;;5006111;28;13200;-47
2020/12/14 15:26:05;;;;;;;;;;;;;;;;;;5006393;28;8638;-50
2020/12/14 15:28:30;;;;;;;;;;;;;;;;;;4997478;28;8603;-49
2020/12/14 15:30:55;;;;;;;;;;;;;;;;;;4988960;28;12305;-46
2020/12/14 15:33:21;;;;;;;;;;;;;;;;;;4985324;28;9125;-49
2020/12/14 15:35:48;;;;;;;;;;;;;;;;;;4995886;28;10648;-48
2020/12/14 15:38:14;;;;;;;;;;;;;;;;;;4997560;28;13168;-51
2020/12/14 15:40:39;;;;;;;;;;;;;;;;;;5002122;28;9748;-48
2020/12/14 15:43:05;;;;;;;;;;;;;;;;;;4993806;28;14486;-49
2020/12/14 15:45:30;;;;;;;;;;;;;;;;;;4980275;28;10354;-45
2020/12/14 15:47:55;;;;;;;;;;;;;;;;;;4982116;28;12336;-48
2020/12/14 15:50:20;;;;;;;;;;;;;;;;;;4987114;28;7132;-47
2020/12/14 15:52:48;;;;;;;;;;;;;;;;;;4983522;28;3993;-46
2020/12/14 15:55:14;;;;;;;;;;;;;;;;;;4986703;28;11733;-48
2020/12/14 15:57:39;;;;;;;;;;;;;;;;;;4997371;28;11430;-48
2020/12/14 16:00:04;;;;;;;;;;;;;;;;;;4999973;28;13476;-46
2020/12/14 16:02:30;;;;;;;;;;;;;;;;;;5002866;28;10383;-49
2020/12/14 16:04:55;;;;;;;;;;;;;;;;;;5009516;28;4134;-51
2020/12/14 16:07:20;;;;;;;;;;;;;;;;;;5002863;28;9219;-46
2020/12/14 16:09:45;;;;;;;;;;;;;;;;;;5005978;28;9063;-52
2020/12/14 16:12:11;;;;;;;;;;;;;;;;;;5008220;28;11211;-47
2020/12/14 16:14:36;;;;;;;;;;;;;;;;;;5003102;28;10542;-46
2020/12/14 16:17:01;;;;;;;;;;;;;;;;;;5008915;28;3872;-49
2020/12/14 16:19:27;;;;;;;;;;;;;;;;;;5006265;28;5784;-45
2020/12/14 16:21:52;;;;;;;;;;;;;;;;;;4985250;28;10474;-50
2020/12/14 16:24:17;;;;;;;;;;;;;;;;;;4993053;28;9072;-43
2020/12/14 16:26:42;;;;;;;;;;;;;;;;;;4990686;28;11512;-43
2020/12/14 16:29:08;;;;;;;;;;;;;;;;;;5001239;28;10504;-46
2020/12/14 16:31:33;;;;;;;;;;;;;;;;;;5007044;28;9272;-43
2020/12/14 16:33:58;;;;;;;;;;;;;;;;;;5008556;28;10705;-43
2020/12/14 16:36:23;;;;;;;;;;;;;;;;;;5005950;28;9983;-42
2020/12/14 16:38:49;;;;;;;;;;;;;;;;;;5004932;28;13922;-43
2020/12/14 16:41:14;;;;;;;;;;;;;;;;;;5007681;28;9721;-43
2020/12/14 16:43:39;;;;;;;;;;;;;;;;;;5005985;28;9759;-43
2020/12/14 16:46:06;;;;;;;;;;;;;;;;;;5001078;28;9719;-44
2020/12/14 16:48:32;;;;;;;;;;;;;;;;;;5001142;28;9397;-44
2020/12/14 16:50:57;;;;;;;;;;;;;;;;;;5004694;28;9161;-43
2020/12/14 16:53:22;;;;;;;;;;;;;;;;;;5240901;22;10440;-45
2020/12/14 16:55:48;;;;;;;;;;;;;;;;;;5054204;28;4097;-47
2020/12/14 16:58:13;;;;;;;;;;;;;;;;;;5046290;28;10266;-46
2020/12/14 17:00:38;;;;;;;;;;;;;;;;;;5046776;28;14912;-46
2020/12/14 17:03:06;;;;;;;;;;;;;;;;;;5044797;28;11057;-46
2020/12/14 17:05:31;;;;;;;;;;;;;;;;;;5047808;28;15163;-50
2020/12/14 17:07:58;;;;;;;;;;;;;;;;;;5047336;28;4160;-47